createdAt,value
2022-10-18T00:00:29.004Z,31.13
2022-10-18T00:05:31.835Z,31.02
2022-10-18T00:10:36.059Z,29.50
2022-10-18T00:15:38.955Z,29.83
2022-10-18T00:20:41.772Z,31.27
2022-10-18T00:25:45.848Z,28.73
2022-10-18T00:35:56.326Z,30.80
2022-10-18T00:41:00.494Z,30.55
2022-10-18T00:46:03.562Z,30.10
2022-10-18T00:51:06.699Z,29.90
2022-10-18T00:56:10.933Z,29.80
2022-10-18T01:01:13.790Z,31.05
2022-10-18T01:06:16.635Z,30.88
2022-10-18T01:11:33.733Z,29.30
2022-10-18T01:16:41.867Z,30.35
2022-10-18T01:21:49.365Z,31.17
2022-10-18T01:27:25.445Z,31.33
2022-10-18T01:32:35.830Z,30.40
2022-10-18T01:37:40.228Z,31.73
2022-10-18T01:42:46.552Z,31.25
2022-10-18T01:47:51.941Z,31.10
2022-10-18T01:52:54.702Z,31.83
2022-10-18T01:58:04.086Z,32.40
2022-10-18T02:03:15.104Z,31.80
2022-10-18T02:08:27.166Z,30.52
2022-10-18T02:13:34.577Z,31.35
2022-10-18T02:18:43.207Z,32.25
2022-10-18T02:23:47.777Z,34.10
2022-10-18T02:28:50.648Z,30.98
2022-10-18T02:33:59.451Z,31.45
2022-10-18T02:39:07.319Z,32.28
2022-10-18T02:44:10.446Z,32.03
2022-10-18T02:49:14.675Z,33.00
2022-10-18T02:54:19.760Z,32.05
2022-10-18T02:59:22.631Z,33.38
2022-10-18T03:04:29.713Z,33.42
2022-10-18T03:09:32.488Z,33.03
2022-10-18T03:14:35.279Z,35.05
2022-10-18T03:19:39.596Z,34.45
2022-10-18T03:24:42.348Z,33.75
2022-10-18T03:29:45.071Z,34.03
2022-10-18T03:34:49.162Z,31.98
2022-10-18T03:39:51.884Z,33.25
2022-10-18T03:44:54.636Z,31.73
2022-10-18T03:49:58.746Z,33.72
2022-10-18T03:55:01.487Z,33.10
2022-10-18T04:00:05.679Z,34.30
2022-10-18T04:05:10.634Z,33.72
2022-10-18T04:10:13.409Z,32.53
2022-10-18T04:15:16.382Z,32.42
2022-10-18T04:20:20.696Z,31.02
2022-10-18T04:25:23.472Z,30.55
2022-10-18T04:30:26.253Z,32.33
2022-10-18T04:35:30.383Z,32.53
2022-10-18T04:40:33.247Z,31.60
2022-10-18T04:45:36.165Z,31.67
2022-10-18T04:50:40.298Z,30.33
2022-10-18T04:55:45.184Z,29.60
2022-10-18T05:00:48.437Z,29.02
2022-10-18T05:06:07.505Z,30.08
2022-10-18T05:16:12.883Z,28.05
2022-10-18T05:21:17.396Z,28.13
2022-10-18T05:26:20.120Z,27.42
2022-10-18T05:31:22.920Z,28.63
2022-10-18T05:36:29.441Z,27.98
2022-10-18T05:41:32.568Z,28.02
2022-10-18T05:46:36.126Z,28.42
2022-10-18T05:51:40.544Z,27.85
2022-10-18T05:56:43.443Z,26.33
2022-10-18T06:01:46.217Z,26.17
2022-10-18T06:06:50.354Z,28.13
2022-10-18T06:11:53.368Z,25.90
2022-10-18T06:16:56.687Z,26.35
2022-10-18T06:22:00.765Z,25.60
2022-10-18T06:27:08.079Z,24.02
2022-10-18T06:32:11.098Z,22.63
2022-10-18T06:37:15.355Z,22.40
2022-10-18T06:42:20.456Z,22.02
2022-10-18T06:47:25.505Z,21.55
2022-10-18T06:52:29.805Z,21.08
2022-10-18T06:57:32.845Z,20.55
2022-10-18T07:02:35.614Z,20.00
2022-10-18T07:07:39.700Z,19.98
2022-10-18T07:12:42.473Z,20.02
2022-10-18T07:17:46.344Z,19.30
2022-10-18T07:22:50.418Z,17.98
2022-10-18T07:27:53.325Z,19.42
2022-10-18T07:32:56.094Z,20.23
2022-10-18T07:38:00.154Z,19.08
2022-10-18T07:43:04.708Z,19.15
2022-10-18T07:48:07.998Z,18.35
2022-10-18T07:53:12.241Z,18.40
2022-10-18T07:58:15.011Z,19.23
2022-10-18T08:03:17.749Z,19.20
2022-10-18T08:08:22.984Z,17.67
2022-10-18T08:13:26.077Z,18.15
2022-10-18T08:18:29.063Z,18.95
2022-10-18T08:23:35.878Z,19.33
2022-10-18T08:28:38.823Z,19.42
2022-10-18T08:33:44.251Z,18.70
2022-10-18T08:38:49.261Z,18.83
2022-10-18T08:43:58.873Z,18.58
2022-10-18T08:49:07.360Z,18.25
2022-10-18T08:54:15.475Z,17.98
2022-10-18T08:59:21.961Z,18.75
2022-10-18T09:04:45.410Z,20.45
2022-10-18T09:09:55.784Z,19.70
2022-10-18T09:15:13.799Z,20.02
2022-10-18T09:20:25.300Z,20.10
2022-10-18T09:25:37.000Z,18.83
2022-10-18T09:30:50.166Z,16.95
2022-10-18T09:35:57.389Z,16.63
2022-10-18T09:41:06.355Z,16.67
2022-10-18T09:46:10.997Z,16.05
2022-10-18T09:51:17.729Z,16.50
2022-10-18T09:56:27.288Z,17.13
2022-10-18T10:01:32.350Z,17.20
2022-10-18T10:06:38.609Z,17.27
2022-10-18T10:11:47.538Z,17.85
2022-10-18T10:16:52.989Z,18.00
2022-10-18T10:22:00.338Z,17.23
2022-10-18T10:27:06.239Z,17.52
2022-10-18T10:32:14.640Z,17.88
2022-10-18T10:37:33.451Z,19.05
2022-10-18T10:42:39.843Z,18.60
2022-10-18T10:47:42.631Z,17.48
2022-10-18T10:52:49.059Z,18.17
2022-10-18T10:57:53.838Z,19.10
2022-10-18T11:03:27.205Z,19.33
2022-10-18T11:08:36.781Z,16.08
2022-10-18T11:13:56.972Z,13.07
2022-10-18T11:19:30.774Z,10.52
2022-10-18T11:24:35.002Z,11.88
2022-10-18T11:29:55.675Z,11.10
2022-10-18T11:35:09.395Z,10.30
2022-10-18T11:40:28.801Z,9.15
2022-10-18T11:45:42.781Z,9.18
2022-10-18T11:50:52.907Z,8.70
2022-10-18T11:56:05.632Z,7.93
2022-10-18T12:01:16.869Z,7.30
2022-10-18T12:06:25.188Z,6.50
2022-10-18T12:11:31.837Z,6.22
2022-10-18T12:16:51.096Z,5.43
2022-10-18T12:21:57.353Z,4.82
2022-10-18T12:27:02.211Z,4.75
2022-10-18T12:32:11.525Z,3.92
2022-10-18T12:37:35.667Z,3.70
2022-10-18T12:42:43.680Z,3.63
2022-10-18T12:47:47.870Z,3.90
2022-10-18T12:53:03.306Z,3.40
2022-10-18T12:58:29.710Z,3.80
2022-10-18T13:04:03.816Z,3.17
2022-10-18T13:09:21.930Z,2.00
2022-10-18T13:15:07.114Z,2.17
2022-10-18T13:20:27.895Z,1.27
2022-10-18T13:25:40.111Z,1.40
2022-10-18T13:30:52.109Z,1.50
2022-10-18T13:35:58.530Z,1.20
2022-10-18T13:41:02.836Z,1.35
2022-10-18T13:46:05.915Z,1.50
2022-10-18T13:51:27.894Z,2.45
2022-10-18T13:56:52.749Z,2.50
2022-10-18T14:02:10.945Z,2.40
2022-10-18T14:07:18.923Z,1.40
2022-10-18T14:12:29.445Z,1.40
2022-10-18T14:22:50.636Z,2.63
2022-10-18T14:28:11.414Z,1.80
2022-10-18T14:33:28.880Z,1.70
2022-10-18T14:38:33.635Z,1.75
2022-10-18T14:43:36.404Z,2.70
2022-10-18T14:48:39.223Z,2.00
2022-10-18T14:53:43.515Z,1.98
2022-10-18T14:58:46.250Z,2.00
2022-10-18T15:03:49.392Z,1.98
2022-10-18T15:08:57.211Z,1.80
2022-10-18T15:14:06.658Z,3.25
2022-10-18T15:19:28.750Z,2.15
2022-10-18T15:24:35.752Z,2.40
2022-10-18T15:29:38.782Z,2.00
2022-10-18T15:34:41.592Z,2.20
2022-10-18T15:39:45.727Z,2.13
2022-10-18T15:44:50.887Z,2.63
2022-10-18T15:49:56.397Z,2.15
2022-10-18T15:55:01.321Z,2.90
2022-10-18T16:00:07.523Z,3.00
2022-10-18T16:05:16.677Z,3.55
2022-10-18T16:10:20.923Z,3.45
2022-10-18T16:15:23.691Z,3.55
2022-10-18T16:20:27.477Z,4.18
2022-10-18T16:25:31.556Z,4.32
2022-10-18T16:30:35.691Z,4.18
2022-10-18T16:35:38.459Z,4.28
2022-10-18T16:40:42.595Z,4.00
2022-10-18T16:45:45.536Z,3.97
2022-10-18T16:50:49.104Z,3.65
2022-10-18T16:55:56.434Z,4.32
2022-10-18T17:00:59.820Z,4.47
2022-10-18T17:06:03.866Z,4.28
2022-10-18T17:11:08.060Z,4.65
2022-10-18T17:16:22.004Z,4.43
2022-10-18T17:21:25.310Z,4.32
2022-10-18T17:26:30.284Z,9.38
2022-10-18T17:31:35.466Z,6.28
2022-10-18T17:36:38.601Z,5.43
2022-10-18T17:41:42.692Z,6.50
2022-10-18T17:46:45.479Z,5.88
2022-10-18T17:51:48.278Z,7.88
2022-10-18T17:56:54.530Z,8.30
2022-10-18T18:01:57.542Z,9.10
2022-10-18T18:07:00.440Z,8.27
2022-10-18T18:12:05.099Z,8.50
2022-10-18T18:17:07.882Z,8.32
2022-10-18T18:22:10.848Z,9.38
2022-10-18T18:27:14.986Z,12.05
2022-10-18T18:32:17.737Z,13.75
2022-10-18T18:37:20.742Z,10.90
2022-10-18T18:42:24.833Z,12.60
2022-10-18T18:47:27.975Z,10.15
2022-10-18T18:52:31.436Z,7.90
2022-10-18T18:57:39.401Z,7.75
2022-10-18T19:02:42.201Z,8.15
2022-10-18T19:07:44.994Z,7.72
2022-10-18T19:12:49.293Z,13.07
2022-10-18T19:17:52.068Z,11.25
2022-10-18T19:22:54.798Z,11.55
2022-10-18T19:27:58.943Z,10.48
2022-10-18T19:33:04.423Z,10.25
2022-10-18T19:38:07.168Z,10.73
2022-10-18T19:43:13.753Z,9.05
2022-10-18T19:48:16.926Z,10.00
2022-10-18T19:53:19.689Z,10.32
2022-10-18T19:58:23.916Z,11.07
2022-10-18T20:03:30.231Z,11.15
2022-10-18T20:08:34.396Z,9.95
2022-10-18T20:13:38.977Z,11.43
2022-10-18T20:18:43.033Z,11.30
2022-10-18T20:23:45.941Z,14.02
2022-10-18T20:28:56.238Z,13.13
2022-10-18T20:34:01.180Z,11.60
2022-10-18T20:39:04.865Z,12.23
2022-10-18T20:44:13.253Z,12.25
2022-10-18T20:49:17.314Z,12.55
2022-10-18T20:54:20.064Z,12.52
2022-10-18T20:59:24.217Z,12.40
2022-10-18T21:04:27.130Z,12.82
2022-10-18T21:09:29.942Z,13.60
2022-10-18T21:14:34.117Z,12.63
2022-10-18T21:19:37.041Z,13.00
2022-10-18T21:24:39.846Z,12.10
2022-10-18T21:29:43.900Z,12.68
2022-10-18T21:34:46.699Z,13.10
2022-10-18T21:39:49.446Z,13.80
2022-10-18T21:44:53.578Z,11.65
2022-10-18T21:55:20.034Z,12.70
2022-10-18T22:00:24.220Z,12.13
2022-10-18T22:05:26.984Z,12.57
2022-10-18T22:10:30.226Z,12.27
2022-10-18T22:15:34.341Z,14.35
2022-10-18T22:20:37.102Z,13.38
2022-10-18T22:25:39.873Z,12.13
2022-10-18T22:30:43.982Z,11.95
2022-10-18T22:35:50.038Z,13.07
2022-10-18T22:40:52.815Z,14.02
2022-10-18T22:45:57.308Z,13.90
2022-10-18T22:51:00.372Z,14.52
2022-10-18T22:56:04.409Z,14.65
2022-10-18T23:01:11.011Z,13.73
2022-10-18T23:06:21.141Z,13.82
2022-10-18T23:11:25.023Z,17.25
2022-10-18T23:16:29.517Z,17.60
2022-10-18T23:21:32.313Z,20.23
2022-10-18T23:26:35.153Z,19.23
2022-10-18T23:31:40.313Z,23.10
2022-10-18T23:41:50.699Z,19.95
2022-10-18T23:46:54.848Z,21.02
2022-10-18T23:51:57.587Z,20.13
2022-10-18T23:57:00.358Z,20.63
